createdAt,value
2022-10-19T00:02:45.542Z,10.52
2022-10-19T00:05:46.847Z,10.55
2022-10-19T00:08:48.158Z,10.60
2022-10-19T00:11:50.629Z,10.60
2022-10-19T00:14:52.062Z,10.56
2022-10-19T00:17:53.584Z,10.60
2022-10-19T00:21:03.757Z,10.57
2022-10-19T00:24:06.123Z,10.56
2022-10-19T00:27:07.456Z,10.54
2022-10-19T00:30:09.024Z,10.56
2022-10-19T00:33:10.348Z,10.57
2022-10-19T00:36:18.621Z,10.59
2022-10-19T00:39:19.996Z,10.58
2022-10-19T00:42:21.375Z,10.57
2022-10-19T00:45:22.740Z,10.57
2022-10-19T00:48:31.566Z,10.59
2022-10-19T00:51:37.712Z,10.61
2022-10-19T00:54:42.349Z,10.62
2022-10-19T00:57:43.754Z,10.60
2022-10-19T01:00:45.522Z,10.56
2022-10-19T01:03:46.892Z,10.48
2022-10-19T01:06:48.286Z,10.44
2022-10-19T01:09:49.801Z,10.45
2022-10-19T01:13:26.447Z,10.38
2022-10-19T01:16:36.521Z,10.38
2022-10-19T01:20:12.171Z,10.34
2022-10-19T01:23:51.194Z,10.31
2022-10-19T01:27:14.714Z,10.32
2022-10-19T01:30:48.326Z,10.28
2022-10-19T01:34:09.522Z,10.27
2022-10-19T01:37:18.106Z,10.31
2022-10-19T01:40:34.466Z,10.26
2022-10-19T01:43:38.801Z,10.23
2022-10-19T01:46:43.838Z,10.20
2022-10-19T01:50:01.683Z,10.17
2022-10-19T01:53:06.126Z,10.14
2022-10-19T01:56:09.110Z,10.18
2022-10-19T01:59:12.126Z,10.17
2022-10-19T02:02:14.915Z,10.15
2022-10-19T02:05:20.048Z,10.15
2022-10-19T02:08:27.871Z,10.18
2022-10-19T02:11:31.179Z,10.15
2022-10-19T02:14:35.867Z,9.89
2022-10-19T02:17:42.263Z,9.99
2022-10-19T02:20:43.667Z,10.03
2022-10-19T02:23:45.059Z,10.04
2022-10-19T02:26:46.535Z,10.01
2022-10-19T02:29:47.983Z,10.01
2022-10-19T02:32:49.876Z,10.05
2022-10-19T02:35:51.191Z,10.04
2022-10-19T02:38:52.669Z,10.08
2022-10-19T02:42:07.564Z,10.10
2022-10-19T02:45:32.854Z,10.13
2022-10-19T02:48:37.748Z,10.20
2022-10-19T02:51:54.620Z,10.27
2022-10-19T02:54:56.009Z,10.29
2022-10-19T02:57:57.515Z,10.31
2022-10-19T03:00:58.914Z,10.30
2022-10-19T03:04:00.264Z,10.31
2022-10-19T03:07:01.608Z,10.27
2022-10-19T03:10:03.681Z,10.26
2022-10-19T03:13:05.133Z,10.21
2022-10-19T03:16:15.277Z,10.21
2022-10-19T03:19:16.629Z,10.25
2022-10-19T03:22:18.061Z,10.26
2022-10-19T03:25:19.446Z,10.29
2022-10-19T03:28:20.778Z,10.33
2022-10-19T03:31:22.164Z,10.30
2022-10-19T03:34:23.499Z,10.27
2022-10-19T03:37:24.854Z,10.28
2022-10-19T03:40:26.776Z,10.29
2022-10-19T03:43:28.111Z,10.28
2022-10-19T03:46:29.995Z,10.23
2022-10-19T03:49:31.363Z,10.21
2022-10-19T03:52:32.708Z,10.27
2022-10-19T03:55:34.027Z,10.32
2022-10-19T03:58:37.235Z,10.33
2022-10-19T04:01:41.219Z,10.34
2022-10-19T04:04:42.600Z,10.34
2022-10-19T04:07:43.914Z,10.37
2022-10-19T04:10:45.250Z,10.35
2022-10-19T04:13:53.315Z,10.34
2022-10-19T04:16:54.707Z,10.32
2022-10-19T04:19:56.043Z,10.33
2022-10-19T04:22:57.387Z,10.31
2022-10-19T04:26:05.021Z,10.33
2022-10-19T04:29:06.502Z,10.32
2022-10-19T04:32:07.932Z,10.32
2022-10-19T04:35:09.396Z,10.30
2022-10-19T04:38:10.736Z,10.32
2022-10-19T04:41:14.616Z,10.34
2022-10-19T04:44:16.002Z,10.34
2022-10-19T04:47:17.406Z,10.34
2022-10-19T04:50:18.900Z,10.34
2022-10-19T04:53:20.292Z,10.34
2022-10-19T04:56:23.309Z,10.37
2022-10-19T04:59:24.661Z,10.36
2022-10-19T05:02:25.993Z,10.39
2022-10-19T05:05:27.317Z,10.38
2022-10-19T05:08:28.701Z,10.38
2022-10-19T05:11:30.105Z,10.36
2022-10-19T05:14:35.018Z,10.33
2022-10-19T05:17:38.126Z,10.27
2022-10-19T05:20:39.482Z,10.23
2022-10-19T05:23:42.162Z,10.22
2022-10-19T05:26:43.496Z,10.17
2022-10-19T05:29:44.843Z,10.18
2022-10-19T05:32:46.194Z,10.17
2022-10-19T05:35:47.576Z,10.17
2022-10-19T05:38:49.898Z,10.15
2022-10-19T05:41:51.227Z,10.08
2022-10-19T05:44:52.566Z,10.24
2022-10-19T05:47:53.907Z,10.29
2022-10-19T05:50:55.367Z,10.33
2022-10-19T05:53:57.255Z,10.32
2022-10-19T05:56:58.616Z,10.30
2022-10-19T05:59:59.959Z,10.27
2022-10-19T06:03:01.299Z,10.27
2022-10-19T06:06:04.303Z,10.30
2022-10-19T06:09:05.729Z,10.23
2022-10-19T06:12:07.092Z,10.25
2022-10-19T06:15:08.781Z,10.26
2022-10-19T06:18:12.193Z,10.32
2022-10-19T06:21:15.627Z,10.12
2022-10-19T06:24:16.994Z,10.27
2022-10-19T06:27:18.415Z,10.32
2022-10-19T06:30:19.877Z,10.33
2022-10-19T06:33:21.244Z,10.36
2022-10-19T06:36:25.331Z,10.40
2022-10-19T06:39:26.649Z,10.51
2022-10-19T06:42:27.977Z,10.57
2022-10-19T06:45:32.282Z,10.59
2022-10-19T06:48:37.370Z,10.60
2022-10-19T06:51:38.742Z,10.67
2022-10-19T06:54:40.093Z,10.70
2022-10-19T06:57:41.445Z,10.77
2022-10-19T07:00:42.877Z,10.85
2022-10-19T07:03:44.266Z,10.88
2022-10-19T07:06:45.666Z,10.83
2022-10-19T07:09:48.180Z,10.83
2022-10-19T07:12:49.519Z,10.88
2022-10-19T07:16:00.155Z,11.03
2022-10-19T07:19:01.518Z,11.01
2022-10-19T07:22:03.135Z,11.05
2022-10-19T07:25:04.848Z,11.10
2022-10-19T07:28:06.183Z,11.13
2022-10-19T07:31:10.294Z,11.05
2022-10-19T07:34:12.971Z,11.15
2022-10-19T07:37:14.315Z,11.32
2022-10-19T07:40:15.719Z,11.47
2022-10-19T07:43:17.047Z,11.51
2022-10-19T07:46:21.603Z,11.40
2022-10-19T07:49:22.972Z,11.38
2022-10-19T07:52:24.416Z,11.30
2022-10-19T07:55:25.751Z,11.13
2022-10-19T07:58:27.112Z,11.07
2022-10-19T08:01:31.186Z,11.13
2022-10-19T08:07:53.844Z,11.15
2022-10-19T08:10:55.660Z,11.21
2022-10-19T08:13:57.097Z,11.11
2022-10-19T08:16:58.480Z,11.09
2022-10-19T08:19:59.841Z,11.08
2022-10-19T08:23:01.160Z,11.12
2022-10-19T08:26:02.673Z,11.19
2022-10-19T08:29:06.394Z,11.29
2022-10-19T08:32:07.710Z,11.35
2022-10-19T08:35:10.866Z,11.39
2022-10-19T08:38:12.269Z,11.28
2022-10-19T08:41:22.713Z,11.45
2022-10-19T08:44:24.002Z,11.65
2022-10-19T08:47:47.333Z,11.88
2022-10-19T08:50:48.976Z,12.06
2022-10-19T08:53:55.480Z,12.24
2022-10-19T08:57:23.110Z,12.42
2022-10-19T09:00:36.706Z,12.69
2022-10-19T09:03:55.859Z,13.03
2022-10-19T09:07:09.643Z,12.98
2022-10-19T09:10:14.040Z,13.07
2022-10-19T09:13:53.247Z,13.31
2022-10-19T09:17:05.948Z,13.49
2022-10-19T09:20:23.230Z,13.48
2022-10-19T09:23:27.579Z,13.76
2022-10-19T09:26:32.572Z,13.60
2022-10-19T09:29:43.716Z,13.68
2022-10-19T09:32:45.262Z,14.05
2022-10-19T09:35:47.612Z,14.11
2022-10-19T09:38:49.760Z,14.16
2022-10-19T09:42:01.008Z,14.05
2022-10-19T09:45:26.210Z,13.98
2022-10-19T09:48:41.543Z,14.03
2022-10-19T09:51:52.756Z,13.84
2022-10-19T09:55:07.020Z,13.52
2022-10-19T09:58:14.408Z,13.53
2022-10-19T10:01:43.158Z,13.84
2022-10-19T10:04:56.420Z,13.90
2022-10-19T10:07:57.885Z,14.13
2022-10-19T10:11:04.245Z,14.21
2022-10-19T10:14:21.470Z,14.13
2022-10-19T10:17:29.397Z,14.13
2022-10-19T10:20:32.106Z,14.06
2022-10-19T10:23:34.349Z,14.02
2022-10-19T10:26:42.122Z,14.22
2022-10-19T10:33:08.041Z,14.55
2022-10-19T10:36:24.562Z,14.47
2022-10-19T10:39:27.602Z,14.79
2022-10-19T10:42:41.390Z,14.63
2022-10-19T10:45:46.870Z,14.77
2022-10-19T10:48:55.639Z,14.70
2022-10-19T10:52:00.227Z,14.52
2022-10-19T10:55:10.819Z,14.46
2022-10-19T10:58:18.355Z,14.43
2022-10-19T11:01:22.788Z,14.73
2022-10-19T11:04:28.267Z,14.86
2022-10-19T11:07:33.486Z,14.80
2022-10-19T11:11:01.828Z,14.42
2022-10-19T11:14:24.963Z,14.47
2022-10-19T11:17:30.883Z,14.82
2022-10-19T11:20:35.105Z,14.51
2022-10-19T11:24:14.744Z,14.44
2022-10-19T11:27:41.748Z,14.28
2022-10-19T11:31:13.015Z,14.11
2022-10-19T11:34:32.499Z,14.20
2022-10-19T11:38:18.338Z,14.13
2022-10-19T11:41:38.949Z,14.09
2022-10-19T11:44:54.465Z,14.58
2022-10-19T11:48:04.778Z,14.69
2022-10-19T11:51:21.709Z,14.36
2022-10-19T11:54:32.680Z,14.46
2022-10-19T11:57:54.228Z,14.64
2022-10-19T12:01:08.029Z,14.90
2022-10-19T12:04:42.313Z,14.81
2022-10-19T12:08:05.184Z,14.89
2022-10-19T12:11:40.928Z,15.19
2022-10-19T12:14:46.462Z,15.15
2022-10-19T12:17:51.755Z,15.05
2022-10-19T12:20:57.723Z,14.93
2022-10-19T12:24:02.646Z,14.80
2022-10-19T12:27:05.055Z,14.56
2022-10-19T12:30:13.271Z,14.52
2022-10-19T12:33:31.183Z,14.37
2022-10-19T12:36:52.498Z,14.04
2022-10-19T12:40:03.210Z,13.83
2022-10-19T12:43:18.924Z,13.75
2022-10-19T12:46:39.807Z,13.56
2022-10-19T12:49:51.376Z,13.75
2022-10-19T12:52:52.775Z,13.86
2022-10-19T12:56:11.539Z,14.03
2022-10-19T12:59:23.961Z,14.00
2022-10-19T13:02:30.364Z,14.12
2022-10-19T13:05:34.446Z,14.00
2022-10-19T13:08:47.139Z,13.62
2022-10-19T13:12:16.472Z,13.37
2022-10-19T13:15:33.658Z,13.57
2022-10-19T13:19:00.115Z,13.56
2022-10-19T13:22:01.412Z,13.66
2022-10-19T13:25:24.160Z,13.83
2022-10-19T13:28:28.575Z,13.88
2022-10-19T13:31:31.392Z,13.95
2022-10-19T13:34:32.825Z,13.63
2022-10-19T13:37:34.864Z,13.68
2022-10-19T13:40:48.290Z,13.53
2022-10-19T13:43:59.465Z,13.02
2022-10-19T13:47:18.489Z,13.19
2022-10-19T13:50:31.841Z,13.23
2022-10-19T13:53:56.725Z,13.28
2022-10-19T13:57:23.129Z,13.34
2022-10-19T14:00:30.559Z,13.30
2022-10-19T14:03:50.672Z,13.26
2022-10-19T14:06:57.170Z,13.37
2022-10-19T14:10:11.964Z,13.37
2022-10-19T14:13:14.750Z,13.35
2022-10-19T14:16:21.033Z,13.28
2022-10-19T14:19:41.515Z,13.25
2022-10-19T14:22:42.843Z,13.25
2022-10-19T14:25:55.514Z,13.17
2022-10-19T14:28:59.335Z,13.22
2022-10-19T14:32:00.751Z,13.27
2022-10-19T14:35:20.319Z,13.23
2022-10-19T14:38:36.899Z,13.22
2022-10-19T14:41:38.248Z,13.36
2022-10-19T14:44:42.881Z,13.46
2022-10-19T14:47:54.361Z,13.56
2022-10-19T14:50:57.427Z,13.55
2022-10-19T14:54:12.224Z,13.58
2022-10-19T14:57:25.547Z,13.62
2022-10-19T15:00:28.004Z,13.45
2022-10-19T15:03:30.860Z,13.55
2022-10-19T15:06:34.040Z,13.37
2022-10-19T15:09:47.794Z,13.05
2022-10-19T15:12:52.621Z,13.13
2022-10-19T15:15:54.876Z,13.08
2022-10-19T15:18:56.310Z,12.97
2022-10-19T15:22:19.328Z,12.83
2022-10-19T15:25:31.873Z,12.73
2022-10-19T15:28:40.646Z,12.69
2022-10-19T15:31:43.142Z,12.57
2022-10-19T15:34:45.842Z,12.52
2022-10-19T15:37:49.183Z,12.33
2022-10-19T15:40:57.397Z,12.21
2022-10-19T15:44:00.050Z,12.08
2022-10-19T15:47:16.654Z,11.95
2022-10-19T15:50:36.379Z,11.86
2022-10-19T15:53:37.710Z,11.79
2022-10-19T15:56:40.135Z,11.76
2022-10-19T15:59:41.478Z,11.65
2022-10-19T16:02:43.380Z,11.56
2022-10-19T16:05:44.735Z,11.44
2022-10-19T16:08:46.691Z,11.32
2022-10-19T16:11:48.532Z,11.20
2022-10-19T16:14:50.088Z,11.05
2022-10-19T16:17:58.249Z,10.97
2022-10-19T16:21:00.142Z,10.89
2022-10-19T16:24:01.719Z,10.84
2022-10-19T16:27:03.302Z,10.81
2022-10-19T16:30:05.640Z,10.75
2022-10-19T16:33:07.030Z,10.71
2022-10-19T16:36:08.718Z,10.64
2022-10-19T16:39:10.042Z,10.58
2022-10-19T16:42:11.378Z,10.53
2022-10-19T16:45:12.734Z,10.44
2022-10-19T16:48:14.075Z,10.28
2022-10-19T16:51:20.643Z,10.15
2022-10-19T16:54:22.047Z,10.03
2022-10-19T16:57:23.427Z,9.91
2022-10-19T17:00:24.756Z,9.84
2022-10-19T17:03:26.156Z,9.79
2022-10-19T17:06:28.153Z,9.74
2022-10-19T17:09:41.244Z,9.68
2022-10-19T17:12:43.965Z,9.65
2022-10-19T17:15:45.344Z,9.64
2022-10-19T17:18:47.788Z,9.63
2022-10-19T17:21:49.594Z,9.56
2022-10-19T17:24:51.182Z,9.51
2022-10-19T17:27:52.577Z,9.47
2022-10-19T17:30:54.258Z,9.42
2022-10-19T17:33:56.120Z,9.34
2022-10-19T17:36:57.469Z,9.24
2022-10-19T17:39:58.849Z,9.21
2022-10-19T17:43:00.181Z,9.13
2022-10-19T17:46:03.530Z,9.13
2022-10-19T17:49:04.952Z,8.78
2022-10-19T17:52:06.293Z,8.85
2022-10-19T17:55:12.317Z,8.89
2022-10-19T17:58:14.090Z,8.88
2022-10-19T18:01:17.195Z,8.84
2022-10-19T18:04:18.541Z,8.77
2022-10-19T18:07:19.912Z,8.68
2022-10-19T18:10:21.252Z,8.64
2022-10-19T18:13:22.609Z,8.61
2022-10-19T18:16:32.960Z,8.62
2022-10-19T18:19:34.406Z,8.59
2022-10-19T18:22:35.814Z,8.58
2022-10-19T18:25:53.559Z,8.56
2022-10-19T18:28:57.303Z,8.56
2022-10-19T18:31:58.768Z,8.48
2022-10-19T18:35:00.150Z,8.51
2022-10-19T18:38:01.928Z,8.48
2022-10-19T18:41:05.979Z,8.44
2022-10-19T18:44:12.643Z,8.40
2022-10-19T18:47:13.986Z,8.32
2022-10-19T18:53:22.198Z,8.27
2022-10-19T18:56:24.405Z,8.24
2022-10-19T19:02:35.421Z,8.15
2022-10-19T19:05:47.368Z,8.12
2022-10-19T19:08:49.330Z,8.15
2022-10-19T19:11:50.692Z,8.10
2022-10-19T19:14:52.024Z,8.07
2022-10-19T19:17:54.497Z,7.98
2022-10-19T19:20:55.869Z,7.94
2022-10-19T19:24:00.209Z,7.94
2022-10-19T19:27:01.581Z,7.86
2022-10-19T19:30:03.831Z,7.83
2022-10-19T19:33:05.169Z,7.87
2022-10-19T19:36:08.437Z,7.95
2022-10-19T19:39:09.804Z,8.04
2022-10-19T19:42:11.190Z,8.07
2022-10-19T19:45:12.594Z,8.06
2022-10-19T19:48:13.933Z,8.08
2022-10-19T19:51:20.441Z,8.07
2022-10-19T19:54:21.934Z,8.04
2022-10-19T19:57:23.273Z,8.01
2022-10-19T20:00:24.913Z,7.97
2022-10-19T20:03:26.307Z,7.96
2022-10-19T20:06:28.119Z,7.91
2022-10-19T20:09:29.483Z,7.86
2022-10-19T20:12:30.854Z,7.79
2022-10-19T20:15:32.219Z,7.73
2022-10-19T20:18:33.589Z,7.67
2022-10-19T20:21:35.115Z,7.62
2022-10-19T20:24:37.711Z,7.55
2022-10-19T20:27:39.299Z,7.49
2022-10-19T20:30:40.691Z,7.47
2022-10-19T20:33:43.172Z,7.48
2022-10-19T20:36:44.506Z,7.41
2022-10-19T20:39:47.088Z,7.41
2022-10-19T20:42:48.412Z,7.37
2022-10-19T20:45:49.745Z,7.36
2022-10-19T20:48:51.327Z,7.32
2022-10-19T20:51:54.164Z,7.31
2022-10-19T20:54:55.532Z,7.26
2022-10-19T20:57:56.841Z,7.26
2022-10-19T21:01:07.733Z,7.25
2022-10-19T21:04:11.732Z,7.23
2022-10-19T21:07:13.102Z,7.23
2022-10-19T21:10:14.420Z,7.25
2022-10-19T21:13:15.753Z,7.25
2022-10-19T21:16:19.144Z,7.27
2022-10-19T21:19:21.899Z,7.23
2022-10-19T21:22:23.233Z,7.36
2022-10-19T21:25:24.572Z,7.46
2022-10-19T21:28:25.889Z,7.49
2022-10-19T21:31:27.883Z,7.47
2022-10-19T21:34:30.597Z,7.42
2022-10-19T21:37:32.184Z,7.40
2022-10-19T21:40:35.350Z,7.35
2022-10-19T21:43:36.856Z,7.30
2022-10-19T21:46:38.246Z,7.30
2022-10-19T21:49:39.587Z,7.30
2022-10-19T21:52:40.937Z,7.26
2022-10-19T21:55:42.262Z,7.22
2022-10-19T21:58:48.354Z,7.19
2022-10-19T22:01:49.683Z,7.20
2022-10-19T22:04:51.023Z,7.09
2022-10-19T22:07:52.342Z,6.92
2022-10-19T22:10:53.707Z,6.74
2022-10-19T22:13:56.433Z,6.56
2022-10-19T22:16:57.771Z,6.39
2022-10-19T22:19:59.092Z,6.36
2022-10-19T22:23:00.420Z,6.35
2022-10-19T22:26:01.867Z,6.38
2022-10-19T22:29:05.153Z,6.44
2022-10-19T22:32:06.508Z,6.54
2022-10-19T22:35:08.086Z,6.58
2022-10-19T22:38:09.465Z,6.63
2022-10-19T22:41:10.824Z,6.63
2022-10-19T22:44:12.285Z,6.64
2022-10-19T22:47:13.604Z,6.63
2022-10-19T22:50:15.034Z,6.67
2022-10-19T22:53:16.370Z,6.68
2022-10-19T22:56:17.698Z,6.71
2022-10-19T22:59:19.046Z,6.70
2022-10-19T23:02:20.364Z,6.68
2022-10-19T23:05:21.801Z,6.75
2022-10-19T23:08:23.273Z,6.75
2022-10-19T23:11:24.641Z,6.68
2022-10-19T23:14:25.991Z,6.64
2022-10-19T23:17:27.333Z,6.64
2022-10-19T23:20:28.689Z,6.57
2022-10-19T23:23:31.381Z,6.48
2022-10-19T23:26:32.710Z,6.44
2022-10-19T23:29:34.071Z,6.40
2022-10-19T23:32:35.438Z,6.36
2022-10-19T23:35:36.778Z,6.34
2022-10-19T23:38:38.484Z,6.34
2022-10-19T23:41:39.820Z,6.30
2022-10-19T23:44:43.796Z,6.23
2022-10-19T23:47:45.119Z,6.11
2022-10-19T23:50:46.472Z,6.05
2022-10-19T23:53:49.831Z,6.01
2022-10-19T23:56:51.103Z,5.78
2022-10-19T23:59:52.746Z,5.81
